Portada
METAR-TAF:

METAR-TAF

Aeroports :

Kota Kinabalu, Malàisia

latitud: 05-56N, longitud: 116-03E, altitud: 3 m

Observació

L'informe es va fer fa 21 minuts, a les 22:00 UTC
Vent 5 kt del Est/Sud-Est
Temperatura 24°C
Humitat 83%
Pressió 1009 hPa
Visibilitat: 3500 m
Escasses núvols a una alçada de 1400 ft
Núvols disperses a una alçada de 14000 ft
Cel ennuvolat a una alçada de 27000 ft
calitja

METAR: WBKK 152200Z 11005KT 3500 HZ FEW014 SCT140 BKN270 24/21 Q1009 NOSIG

Hora: 06:21 (22:21 UTC)

Pronòstic

L'informe es va fer fa 5 hores i 21 minuts, a les 17:00 UTC
Pronòstic vàlid del 15 a les 18 UTC al 16 a les 18 UTC
Vent 5 kt del Est/Sud-Est
Visibilitat: 4000 m
Escasses núvols a una alçada de 1400 ft
calitja
Evolucionant progressivament
l' 16 a les 02 UTC al 16 a les 04 UTC
Vent 5 kt del Oest

TAF: WBKK 151700Z 1518/1618 11005KT 4000 HZ FEW014 BECMG 1602/1604 26005KT

Observacions i pronòstics meteorològics de més de 4000 aeroports (METAR i TAF).

Les estacions disponibles són els punts grocs i vermells al mapa.

Posi el ratolí al punt desitjat per veure el nom de l'estació.

Feu clic per veure les observacions i els pronòstics meteorològics.

Per canviar el mapa: feu clic els botons verds amb una creu de color negre per apropar; al botó verd amb un guió per allunyar la imatge; o en les fletxes verdes per a mapes adjacents.


METAR-TAF: